createdAt,value
2019-04-22T00:01:22.790Z,15.70
2019-04-22T00:03:53.204Z,15.70
2019-04-22T00:06:44.414Z,15.60
2019-04-22T00:09:20.921Z,15.50
2019-04-22T00:11:52.924Z,15.50
2019-04-22T00:14:17.637Z,15.40
2019-04-22T00:17:00.748Z,15.40
2019-04-22T00:19:29.347Z,15.40
2019-04-22T00:22:02.829Z,15.40
2019-04-22T00:24:31.866Z,15.40
2019-04-22T00:27:03.677Z,15.40
2019-04-22T00:29:49.608Z,15.40
2019-04-22T00:32:24.567Z,15.40
2019-04-22T00:34:54.360Z,15.40
2019-04-22T00:37:31.492Z,15.30
2019-04-22T00:40:03.140Z,15.30
2019-04-22T00:42:37.499Z,15.30
2019-04-22T00:45:09.727Z,15.30
2019-04-22T00:47:41.496Z,15.30
2019-04-22T00:52:49.411Z,15.20
2019-04-22T00:55:18.191Z,15.20
2019-04-22T00:57:56.236Z,15.30
2019-04-22T01:00:29.191Z,15.20
2019-04-22T01:03:01.637Z,15.20
2019-04-22T01:05:34.444Z,15.10
2019-04-22T01:08:07.057Z,15.10
2019-04-22T01:10:39.009Z,15.10
2019-04-22T01:13:16.306Z,15.00
2019-04-22T01:15:53.128Z,15.00
2019-04-22T01:18:18.197Z,15.00
2019-04-22T01:23:23.887Z,14.90
2019-04-22T01:25:55.265Z,14.90
2019-04-22T01:28:24.014Z,14.80
2019-04-22T01:30:51.673Z,14.80
2019-04-22T01:33:23.811Z,14.80
2019-04-22T01:36:08.072Z,14.80
2019-04-22T01:38:45.305Z,14.80
2019-04-22T01:41:25.335Z,14.80
2019-04-22T01:43:59.022Z,14.70
2019-04-22T01:46:27.275Z,14.70
2019-04-22T01:49:02.764Z,14.70
2019-04-22T01:51:47.135Z,14.70
2019-04-22T01:54:04.137Z,14.70
2019-04-22T01:56:40.819Z,14.70
2019-04-22T01:59:05.126Z,14.70
2019-04-22T02:01:46.057Z,14.60
2019-04-22T02:04:24.044Z,14.60
2019-04-22T02:06:48.253Z,14.70
2019-04-22T02:09:32.728Z,14.60
2019-04-22T02:14:27.229Z,14.60
2019-04-22T02:17:05.170Z,14.50
2019-04-22T02:19:35.731Z,14.50
2019-04-22T02:21:59.695Z,14.50
2019-04-22T02:24:39.602Z,14.50
2019-04-22T02:27:13.551Z,14.50
2019-04-22T02:29:44.431Z,14.40
2019-04-22T02:32:27.632Z,14.40
2019-04-22T02:35:02.075Z,14.40
2019-04-22T02:40:01.541Z,14.40
2019-04-22T02:44:53.585Z,14.40
2019-04-22T02:47:27.595Z,14.30
2019-04-22T02:55:10.663Z,14.30
2019-04-22T03:00:27.349Z,14.30
2019-04-22T03:03:00.419Z,14.30
2019-04-22T03:05:27.769Z,14.30
2019-04-22T03:07:58.647Z,14.30
2019-04-22T03:10:29.867Z,14.20
2019-04-22T03:13:01.017Z,14.20
2019-04-22T03:15:38.057Z,14.20
2019-04-22T03:18:00.570Z,14.20
2019-04-22T03:20:33.934Z,14.20
2019-04-22T03:23:16.987Z,14.20
2019-04-22T03:28:16.160Z,14.10
2019-04-22T03:30:56.295Z,14.10
2019-04-22T03:33:29.378Z,14.10
2019-04-22T03:36:21.590Z,14.10
2019-04-22T03:38:32.174Z,14.00
2019-04-22T03:41:05.654Z,14.00
2019-04-22T03:43:43.783Z,14.00
2019-04-22T03:46:03.867Z,14.00
2019-04-22T03:48:38.379Z,13.90
2019-04-22T03:51:22.258Z,13.90
2019-04-22T03:53:38.453Z,13.90
2019-04-22T03:56:49.583Z,13.80
2019-04-22T03:58:54.383Z,13.80
2019-04-22T04:01:34.249Z,13.80
2019-04-22T04:04:00.689Z,13.80
2019-04-22T04:06:34.662Z,13.70
2019-04-22T04:09:04.258Z,13.70
2019-04-22T04:11:38.978Z,13.70
2019-04-22T04:16:41.300Z,13.70
2019-04-22T04:22:30.385Z,13.70
2019-04-22T04:24:39.522Z,13.70
2019-04-22T04:31:58.278Z,13.70
2019-04-22T04:37:07.399Z,13.70
2019-04-22T04:39:28.732Z,13.80
2019-04-22T04:42:18.304Z,13.80
2019-04-22T04:49:43.911Z,13.80
2019-04-22T04:52:19.399Z,13.80
2019-04-22T04:54:48.417Z,13.80
2019-04-22T05:00:26.187Z,13.80
2019-04-22T05:07:27.892Z,13.80
2019-04-22T05:10:00.581Z,13.80
2019-04-22T05:12:52.712Z,13.80
2019-04-22T05:15:07.213Z,13.90
2019-04-22T05:17:41.228Z,13.90
2019-04-22T05:20:13.376Z,13.90
2019-04-22T05:25:14.856Z,13.90
2019-04-22T05:27:39.773Z,13.90
2019-04-22T05:32:46.178Z,14.00
2019-04-22T05:35:20.756Z,14.00
2019-04-22T05:38:13.349Z,14.00
2019-04-22T05:40:22.992Z,14.10
2019-04-22T05:42:56.584Z,14.10
2019-04-22T05:45:24.983Z,14.20
2019-04-22T05:47:58.696Z,14.20
2019-04-22T05:50:26.902Z,14.20
2019-04-22T05:53:00.545Z,14.30
2019-04-22T05:55:43.583Z,14.30
2019-04-22T05:58:29.352Z,14.40
2019-04-22T06:01:13.148Z,14.50
2019-04-22T06:03:23.539Z,14.50
2019-04-22T06:06:07.807Z,14.60
2019-04-22T06:08:24.988Z,14.70
2019-04-22T06:10:58.121Z,14.70
2019-04-22T06:13:30.428Z,14.80
2019-04-22T06:16:12.456Z,14.80
2019-04-22T06:18:44.939Z,14.90
2019-04-22T06:23:46.963Z,15.00
2019-04-22T06:28:54.654Z,15.10
2019-04-22T06:31:26.780Z,15.20
2019-04-22T06:34:02.816Z,15.30
2019-04-22T06:36:31.045Z,15.30
2019-04-22T06:39:08.394Z,15.40
2019-04-22T06:41:35.453Z,15.50
2019-04-22T06:44:10.871Z,15.50
2019-04-22T06:46:39.746Z,15.60
2019-04-22T06:49:18.810Z,15.60
2019-04-22T06:51:45.406Z,15.70
2019-04-22T06:54:21.806Z,15.80
2019-04-22T06:59:26.571Z,15.90
2019-04-22T07:04:27.939Z,16.10
2019-04-22T07:12:11.894Z,16.40
2019-04-22T07:14:42.060Z,16.50
2019-04-22T07:17:27.567Z,16.60
2019-04-22T07:19:42.262Z,16.70
2019-04-22T07:25:06.181Z,17.00
2019-04-22T07:27:25.297Z,17.00
2019-04-22T07:30:02.000Z,17.10
2019-04-22T07:35:01.446Z,17.40
2019-04-22T07:37:39.508Z,17.40
2019-04-22T07:40:02.398Z,17.50
2019-04-22T07:42:36.831Z,17.60
2019-04-22T07:45:09.919Z,17.70
2019-04-22T07:47:44.355Z,17.80
2019-04-22T07:50:31.188Z,17.90
2019-04-22T07:52:46.012Z,18.10
2019-04-22T07:55:24.426Z,18.20
2019-04-22T07:57:51.887Z,18.30
2019-04-22T08:00:29.027Z,18.40
2019-04-22T08:03:07.988Z,18.50
2019-04-22T08:08:17.465Z,18.80
2019-04-22T08:10:43.272Z,19.00
2019-04-22T08:13:11.354Z,19.10
2019-04-22T08:15:51.336Z,19.20
2019-04-22T08:18:20.364Z,19.30
2019-04-22T08:20:56.720Z,19.50
2019-04-22T08:23:23.760Z,19.50
2019-04-22T08:25:59.478Z,19.60
2019-04-22T08:28:31.961Z,19.70
2019-04-22T08:31:02.135Z,19.80
2019-04-22T08:33:34.811Z,20.00
2019-04-22T08:36:10.798Z,20.10
2019-04-22T08:38:42.030Z,20.40
2019-04-22T08:41:29.745Z,20.70
2019-04-22T08:43:57.424Z,21.10
2019-04-22T08:46:33.173Z,21.50
2019-04-22T08:59:12.464Z,24.60
2019-04-22T09:01:38.139Z,25.00
2019-04-22T09:04:12.045Z,25.20
2019-04-22T09:09:21.212Z,26.00
2019-04-22T09:11:54.612Z,26.70
2019-04-22T09:14:33.592Z,27.10
2019-04-22T09:16:54.772Z,27.40
2019-04-22T09:19:30.045Z,27.70
2019-04-22T09:22:05.045Z,27.90
2019-04-22T09:24:35.807Z,28.20
2019-04-22T09:27:15.795Z,28.40
2019-04-22T09:29:39.733Z,28.90
2019-04-22T09:32:15.355Z,29.50
2019-04-22T09:34:58.894Z,30.00
2019-04-22T09:37:21.005Z,30.10
2019-04-22T09:40:12.146Z,30.40
2019-04-22T09:42:27.351Z,30.30
2019-04-22T09:44:51.918Z,30.30
2019-04-22T09:47:37.284Z,30.40
2019-04-22T09:50:01.928Z,30.50
2019-04-22T09:52:36.565Z,30.90
2019-04-22T09:57:38.330Z,30.40
2019-04-22T10:00:28.687Z,30.90
2019-04-22T10:02:52.934Z,31.50
2019-04-22T10:05:20.902Z,31.50
2019-04-22T10:07:52.826Z,31.20
2019-04-22T10:10:23.745Z,31.30
2019-04-22T10:13:00.237Z,31.60
2019-04-22T10:15:25.221Z,31.90
2019-04-22T10:18:04.159Z,32.20
2019-04-22T10:20:31.380Z,32.60
2019-04-22T10:23:05.859Z,33.00
2019-04-22T10:25:38.099Z,33.20
2019-04-22T10:28:15.137Z,32.80
2019-04-22T10:30:50.073Z,32.50
2019-04-22T10:33:11.665Z,32.20
2019-04-22T10:35:26.401Z,31.80
2019-04-22T10:37:56.550Z,31.80
2019-04-22T10:40:38.841Z,32.10
2019-04-22T10:43:11.496Z,32.10
2019-04-22T10:45:42.222Z,32.10
2019-04-22T10:48:14.580Z,32.00
2019-04-22T10:50:48.957Z,32.10
2019-04-22T10:53:21.561Z,32.10
2019-04-22T10:55:51.932Z,32.20
2019-04-22T10:58:23.062Z,32.80
2019-04-22T11:00:56.138Z,33.30
2019-04-22T11:03:28.364Z,33.60
2019-04-22T11:05:59.470Z,34.00
2019-04-22T11:08:40.720Z,34.40
2019-04-22T11:11:15.141Z,34.90
2019-04-22T11:13:37.970Z,34.60
2019-04-22T11:16:09.750Z,34.50
2019-04-22T11:18:41.252Z,34.80
2019-04-22T11:21:14.036Z,35.20
2019-04-22T11:23:46.835Z,35.30
2019-04-22T11:26:17.994Z,35.80
2019-04-22T11:28:49.322Z,35.70
2019-04-22T11:31:21.528Z,35.40
2019-04-22T11:33:52.460Z,35.30
2019-04-22T11:36:24.743Z,34.90
2019-04-22T11:39:00.358Z,34.70
2019-04-22T11:41:44.206Z,35.30
2019-04-22T11:44:25.402Z,35.70
2019-04-22T11:47:15.303Z,35.60
2019-04-22T11:49:57.597Z,36.10
2019-04-22T11:52:40.631Z,36.30
2019-04-22T11:55:19.369Z,36.60
2019-04-22T11:57:49.893Z,36.50
2019-04-22T12:00:43.224Z,36.30
2019-04-22T12:03:15.056Z,36.40
2019-04-22T12:05:46.009Z,36.80
2019-04-22T12:08:17.357Z,37.30
2019-04-22T12:10:54.487Z,37.70
2019-04-22T12:13:21.813Z,37.40
2019-04-22T12:15:53.418Z,37.20
2019-04-22T12:18:31.235Z,37.20
2019-04-22T12:21:03.575Z,37.20
2019-04-22T12:23:34.988Z,37.20
2019-04-22T12:26:11.683Z,37.00
2019-04-22T12:28:39.207Z,36.60
2019-04-22T12:31:11.291Z,36.50
2019-04-22T12:33:43.410Z,36.70
2019-04-22T12:36:14.941Z,37.40
2019-04-22T12:38:45.601Z,38.10
2019-04-22T12:41:17.823Z,38.30
2019-04-22T12:43:49.262Z,37.80
2019-04-22T12:46:20.582Z,37.10
2019-04-22T12:48:52.060Z,36.10
2019-04-22T12:51:25.305Z,34.90
2019-04-22T12:53:57.065Z,33.50
2019-04-22T12:56:28.174Z,32.30
2019-04-22T12:58:59.368Z,31.60
2019-04-22T13:01:30.849Z,31.30
2019-04-22T13:04:07.396Z,31.20
2019-04-22T13:06:35.431Z,32.00
2019-04-22T13:09:10.497Z,32.80
2019-04-22T13:11:42.710Z,33.20
2019-04-22T13:14:14.956Z,33.50
2019-04-22T13:16:47.274Z,34.00
2019-04-22T13:19:20.590Z,34.70
2019-04-22T13:21:50.970Z,35.30
2019-04-22T13:24:23.627Z,35.40
2019-04-22T13:26:57.090Z,35.30
2019-04-22T13:29:27.888Z,35.40
2019-04-22T13:31:58.695Z,35.90
2019-04-22T13:34:37.708Z,36.30
2019-04-22T13:37:05.116Z,36.30
2019-04-22T13:39:37.182Z,36.10
2019-04-22T13:42:12.411Z,35.90
2019-04-22T13:44:41.825Z,35.60
2019-04-22T13:47:32.494Z,35.40
2019-04-22T13:52:56.635Z,36.00
2019-04-22T13:55:22.115Z,36.20
2019-04-22T13:57:41.420Z,36.40
2019-04-22T13:59:59.761Z,36.40
2019-04-22T14:02:46.623Z,36.10
2019-04-22T14:05:19.586Z,36.00
2019-04-22T14:07:53.143Z,35.90
2019-04-22T14:10:24.824Z,35.60
2019-04-22T14:12:57.032Z,35.40
2019-04-22T14:15:29.751Z,35.50
2019-04-22T14:18:01.346Z,35.30
2019-04-22T14:20:33.078Z,35.10
2019-04-22T14:23:06.002Z,34.80
2019-04-22T14:25:36.851Z,34.30
2019-04-22T14:28:15.286Z,33.60
2019-04-22T14:30:44.427Z,33.40
2019-04-22T14:33:16.076Z,33.10
2019-04-22T14:35:49.757Z,33.10
2019-04-22T14:38:21.459Z,33.50
2019-04-22T14:40:54.493Z,33.80
2019-04-22T14:43:57.853Z,34.10
2019-04-22T14:46:24.143Z,34.40
2019-04-22T14:49:10.456Z,34.20
2019-04-22T14:51:22.331Z,34.20
2019-04-22T14:53:55.413Z,34.20
2019-04-22T14:56:08.359Z,34.20
2019-04-22T14:58:40.553Z,34.20
2019-04-22T15:01:12.963Z,34.00
2019-04-22T15:03:44.861Z,33.90
2019-04-22T15:06:15.938Z,34.20
2019-04-22T15:08:47.005Z,34.30
2019-04-22T15:11:19.302Z,34.00
2019-04-22T15:13:51.533Z,33.90
2019-04-22T15:16:36.470Z,33.70
2019-04-22T15:19:11.732Z,33.40
2019-04-22T15:21:43.026Z,33.00
2019-04-22T15:24:25.301Z,32.70
2019-04-22T15:26:58.525Z,32.80
2019-04-22T15:29:31.655Z,32.70
2019-04-22T15:32:03.277Z,32.40
2019-04-22T15:34:34.614Z,32.20
2019-04-22T15:37:08.451Z,31.90
2019-04-22T15:39:39.577Z,31.90
2019-04-22T15:42:19.654Z,31.60
2019-04-22T15:44:44.079Z,31.30
2019-04-22T15:47:18.857Z,31.00
2019-04-22T15:49:49.923Z,30.60
2019-04-22T15:52:28.194Z,30.10
2019-04-22T15:54:54.008Z,29.50
2019-04-22T15:57:26.651Z,29.00
2019-04-22T16:00:10.563Z,28.80
2019-04-22T16:02:31.628Z,28.40
2019-04-22T16:05:02.807Z,28.00
2019-04-22T16:07:36.099Z,27.70
2019-04-22T16:10:09.985Z,27.40
2019-04-22T16:12:52.099Z,27.10
2019-04-22T16:15:16.173Z,26.90
2019-04-22T16:17:48.732Z,26.70
2019-04-22T16:20:19.701Z,26.50
2019-04-22T16:23:09.629Z,26.20
2019-04-22T16:26:07.323Z,26.10
2019-04-22T16:28:39.694Z,26.10
2019-04-22T16:31:11.267Z,26.00
2019-04-22T16:33:43.779Z,25.90
2019-04-22T16:36:14.392Z,25.90
2019-04-22T16:38:45.004Z,25.80
2019-04-22T16:41:16.840Z,25.70
2019-04-22T16:43:48.822Z,25.70
2019-04-22T16:46:21.323Z,25.70
2019-04-22T16:48:53.814Z,25.60
2019-04-22T16:51:24.432Z,25.60
2019-04-22T16:53:55.803Z,25.50
2019-04-22T16:56:26.814Z,25.40
2019-04-22T16:58:58.939Z,25.40
2019-04-22T17:01:50.405Z,25.40
2019-04-22T17:04:59.642Z,25.30
2019-04-22T17:07:31.883Z,25.20
2019-04-22T17:10:03.971Z,25.00
2019-04-22T17:12:44.353Z,24.90
2019-04-22T17:15:11.928Z,24.70
2019-04-22T17:17:43.259Z,24.60
2019-04-22T17:20:15.452Z,24.50
2019-04-22T17:22:47.303Z,24.40
2019-04-22T17:25:18.566Z,24.40
2019-04-22T17:27:49.756Z,24.30
2019-04-22T17:30:22.278Z,24.30
2019-04-22T17:32:56.664Z,24.20
2019-04-22T17:35:28.373Z,24.10
2019-04-22T17:38:08.927Z,24.00
2019-04-22T17:40:49.574Z,24.00
2019-04-22T17:43:36.161Z,23.90
2019-04-22T17:46:06.795Z,23.80
2019-04-22T17:48:58.844Z,23.70
2019-04-22T17:51:31.590Z,23.60
2019-04-22T17:54:02.861Z,23.50
2019-04-22T17:56:40.643Z,23.40
2019-04-22T17:59:09.687Z,23.30
2019-04-22T18:01:39.345Z,23.20
2019-04-22T18:03:57.104Z,23.10
2019-04-22T18:06:58.132Z,23.00
2019-04-22T18:09:25.122Z,22.90
2019-04-22T18:11:50.988Z,22.80
2019-04-22T18:14:34.690Z,22.70
2019-04-22T18:16:52.135Z,22.60
2019-04-22T18:19:25.989Z,22.50
2019-04-22T18:21:53.336Z,22.40
2019-04-22T18:24:21.976Z,22.30
2019-04-22T18:27:06.956Z,22.20
2019-04-22T18:29:38.891Z,22.20
2019-04-22T18:32:02.775Z,22.10
2019-04-22T18:34:39.067Z,22.00
2019-04-22T18:37:12.774Z,21.90
2019-04-22T18:39:54.208Z,21.90
2019-04-22T18:42:17.128Z,21.80
2019-04-22T18:45:00.150Z,21.70
2019-04-22T18:47:28.113Z,21.60
2019-04-22T18:49:56.547Z,21.60
2019-04-22T18:52:49.343Z,21.50
2019-04-22T18:55:33.938Z,21.50
2019-04-22T18:58:04.179Z,21.40
2019-04-22T19:00:29.341Z,21.30
2019-04-22T19:03:07.469Z,21.20
2019-04-22T19:05:54.273Z,21.20
2019-04-22T19:08:28.565Z,21.10
2019-04-22T19:11:06.934Z,21.00
2019-04-22T19:16:19.733Z,20.90
2019-04-22T19:18:39.321Z,20.80
2019-04-22T19:21:13.440Z,20.80
2019-04-22T19:23:44.863Z,20.60
2019-04-22T19:26:26.058Z,20.60
2019-04-22T19:28:48.442Z,20.50
2019-04-22T19:33:56.349Z,20.30
2019-04-22T19:36:25.762Z,20.10
2019-04-22T19:38:55.248Z,20.00
2019-04-22T19:41:30.490Z,19.90
2019-04-22T19:44:04.060Z,19.80
2019-04-22T19:46:28.128Z,19.70
2019-04-22T19:49:10.297Z,19.60
2019-04-22T19:51:49.475Z,19.50
2019-04-22T19:54:14.036Z,19.40
2019-04-22T19:56:38.303Z,19.30
2019-04-22T19:59:14.970Z,19.20
2019-04-22T20:02:10.375Z,19.10
2019-04-22T20:04:52.896Z,19.00
2019-04-22T20:07:22.298Z,18.90
2019-04-22T20:09:57.638Z,18.80
2019-04-22T20:12:23.467Z,18.80
2019-04-22T20:14:57.288Z,18.70
2019-04-22T20:17:38.865Z,18.70
2019-04-22T20:20:09.866Z,18.60
2019-04-22T20:22:32.697Z,18.50
2019-04-22T20:24:56.426Z,18.40
2019-04-22T20:27:42.282Z,18.30
2019-04-22T20:30:17.218Z,18.20
2019-04-22T20:32:47.451Z,18.20
2019-04-22T20:35:21.019Z,18.10
2019-04-22T20:37:58.193Z,18.10
2019-04-22T20:40:31.339Z,18.00
2019-04-22T20:43:12.265Z,17.90
2019-04-22T20:45:35.111Z,17.90
2019-04-22T20:47:58.797Z,17.80
2019-04-22T20:50:41.731Z,17.80
2019-04-22T20:53:18.632Z,17.70
2019-04-22T20:55:45.017Z,17.70
2019-04-22T20:58:15.286Z,17.60
2019-04-22T21:00:40.320Z,17.60
2019-04-22T21:03:13.214Z,17.50
2019-04-22T21:05:47.187Z,17.50
2019-04-22T21:08:33.378Z,17.40
2019-04-22T21:10:52.114Z,17.40
2019-04-22T21:13:26.123Z,17.30
2019-04-22T21:16:10.818Z,17.30
2019-04-22T21:18:33.379Z,17.20
2019-04-22T21:21:16.604Z,17.20
2019-04-22T21:23:40.831Z,17.20
2019-04-22T21:26:13.261Z,17.10
2019-04-22T21:28:49.023Z,17.10
2019-04-22T21:31:23.531Z,17.00
2019-04-22T21:33:51.614Z,17.00
2019-04-22T21:36:36.709Z,17.00
2019-04-22T21:39:02.567Z,16.90
2019-04-22T21:41:34.455Z,16.90
2019-04-22T21:44:04.823Z,16.80
2019-04-22T21:46:42.277Z,16.80
2019-04-22T21:49:16.725Z,16.80
2019-04-22T21:51:48.533Z,16.70
2019-04-22T21:54:22.433Z,16.70
2019-04-22T21:57:13.991Z,16.60
2019-04-22T21:59:34.370Z,16.50
2019-04-22T22:02:20.845Z,16.50
2019-04-22T22:04:44.526Z,16.40
2019-04-22T22:07:05.278Z,16.40
2019-04-22T22:09:47.510Z,16.30
2019-04-22T22:12:26.458Z,16.30
2019-04-22T22:15:00.419Z,16.20
2019-04-22T22:17:31.019Z,16.20
2019-04-22T22:19:57.560Z,16.10
2019-04-22T22:22:50.065Z,16.10
2019-04-22T22:25:10.593Z,16.00
2019-04-22T22:27:40.721Z,16.00
2019-04-22T22:30:38.518Z,16.00
2019-04-22T22:32:49.824Z,15.90
2019-04-22T22:35:20.647Z,15.90
2019-04-22T22:37:50.372Z,15.90
2019-04-22T22:40:09.461Z,15.80
2019-04-22T22:42:38.972Z,15.80
2019-04-22T22:45:17.480Z,15.80
2019-04-22T22:48:03.823Z,15.70
2019-04-22T22:50:36.001Z,15.70
2019-04-22T22:53:17.073Z,15.70
2019-04-22T22:55:37.295Z,15.70
2019-04-22T22:58:14.277Z,15.70
2019-04-22T23:00:39.397Z,15.60
2019-04-22T23:05:55.398Z,15.50
2019-04-22T23:08:22.725Z,15.50
2019-04-22T23:11:00.371Z,15.50
2019-04-22T23:13:26.182Z,15.40
2019-04-22T23:15:50.150Z,15.40
2019-04-22T23:18:09.952Z,15.40
2019-04-22T23:20:47.260Z,15.40
2019-04-22T23:23:36.106Z,15.30
2019-04-22T23:26:07.407Z,15.30
2019-04-22T23:28:53.511Z,15.30
2019-04-22T23:31:41.931Z,15.30
2019-04-22T23:34:26.539Z,15.30
2019-04-22T23:37:21.899Z,15.20
2019-04-22T23:40:11.730Z,15.20
2019-04-22T23:42:33.512Z,15.10
2019-04-22T23:45:10.804Z,15.10
2019-04-22T23:47:39.074Z,15.10
2019-04-22T23:50:21.230Z,15.10
2019-04-22T23:52:58.839Z,15.00
2019-04-22T23:55:32.809Z,15.00
2019-04-22T23:58:11.999Z,15.00
